sensor_id;sensor_type;location;lat;lon;timestamp;P1;durP1;ratioP1;P2;durP2;ratioP2
6642;SDS011;3357;48.050;7.800;2023-06-26T00:02:10;6.03;;;4.80;;
6642;SDS011;3357;48.050;7.800;2023-06-26T00:04:36;5.57;;;4.93;;
6642;SDS011;3357;48.050;7.800;2023-06-26T00:07:02;6.97;;;5.50;;
6642;SDS011;3357;48.050;7.800;2023-06-26T00:09:28;7.07;;;5.17;;
6642;SDS011;3357;48.050;7.800;2023-06-26T00:11:54;7.10;;;5.40;;
6642;SDS011;3357;48.050;7.800;2023-06-26T00:14:19;6.40;;;4.80;;
6642;SDS011;3357;48.050;7.800;2023-06-26T00:16:45;7.60;;;5.40;;
6642;SDS011;3357;48.050;7.800;2023-06-26T00:19:11;5.83;;;5.00;;
6642;SDS011;3357;48.050;7.800;2023-06-26T00:21:36;6.80;;;5.47;;
6642;SDS011;3357;48.050;7.800;2023-06-26T00:24:02;10.53;;;5.73;;
6642;SDS011;3357;48.050;7.800;2023-06-26T00:26:27;7.93;;;5.83;;
6642;SDS011;3357;48.050;7.800;2023-06-26T00:28:52;4.90;;;4.50;;
6642;SDS011;3357;48.050;7.800;2023-06-26T00:31:18;8.70;;;5.53;;
6642;SDS011;3357;48.050;7.800;2023-06-26T00:33:43;11.53;;;6.80;;
6642;SDS011;3357;48.050;7.800;2023-06-26T00:36:08;5.57;;;4.70;;
6642;SDS011;3357;48.050;7.800;2023-06-26T00:38:34;6.43;;;5.60;;
6642;SDS011;3357;48.050;7.800;2023-06-26T00:41:00;9.23;;;5.60;;
6642;SDS011;3357;48.050;7.800;2023-06-26T00:43:25;6.10;;;5.47;;
6642;SDS011;3357;48.050;7.800;2023-06-26T00:45:50;4.93;;;4.43;;
6642;SDS011;3357;48.050;7.800;2023-06-26T00:48:15;7.10;;;5.30;;
6642;SDS011;3357;48.050;7.800;2023-06-26T00:50:41;7.00;;;5.20;;
6642;SDS011;3357;48.050;7.800;2023-06-26T00:53:06;7.93;;;5.47;;
6642;SDS011;3357;48.050;7.800;2023-06-26T00:55:34;8.57;;;5.67;;
6642;SDS011;3357;48.050;7.800;2023-06-26T00:57:59;12.67;;;5.23;;
6642;SDS011;3357;48.050;7.800;2023-06-26T01:00:25;6.20;;;4.80;;
6642;SDS011;3357;48.050;7.800;2023-06-26T01:02:50;5.67;;;4.83;;
6642;SDS011;3357;48.050;7.800;2023-06-26T01:05:16;6.03;;;5.33;;
6642;SDS011;3357;48.050;7.800;2023-06-26T01:07:45;6.70;;;4.93;;
6642;SDS011;3357;48.050;7.800;2023-06-26T01:10:12;6.97;;;5.10;;
6642;SDS011;3357;48.050;7.800;2023-06-26T01:12:37;8.50;;;5.13;;
6642;SDS011;3357;48.050;7.800;2023-06-26T01:15:03;6.43;;;5.47;;
6642;SDS011;3357;48.050;7.800;2023-06-26T01:17:29;5.20;;;4.43;;
6642;SDS011;3357;48.050;7.800;2023-06-26T01:20:02;7.10;;;5.80;;
6642;SDS011;3357;48.050;7.800;2023-06-26T01:28:03;10.80;;;6.30;;
6642;SDS011;3357;48.050;7.800;2023-06-26T01:30:30;9.60;;;6.20;;
6642;SDS011;3357;48.050;7.800;2023-06-26T01:32:56;6.93;;;5.03;;
6642;SDS011;3357;48.050;7.800;2023-06-26T01:35:22;6.80;;;5.40;;
6642;SDS011;3357;48.050;7.800;2023-06-26T01:37:47;5.90;;;5.03;;
6642;SDS011;3357;48.050;7.800;2023-06-26T01:40:12;5.27;;;4.73;;
6642;SDS011;3357;48.050;7.800;2023-06-26T01:42:38;7.67;;;5.20;;
6642;SDS011;3357;48.050;7.800;2023-06-26T01:45:07;9.47;;;5.47;;
6642;SDS011;3357;48.050;7.800;2023-06-26T01:47:37;5.07;;;4.57;;
6642;SDS011;3357;48.050;7.800;2023-06-26T01:50:08;5.50;;;4.57;;
6642;SDS011;3357;48.050;7.800;2023-06-26T01:58:00;5.87;;;5.10;;
6642;SDS011;3357;48.050;7.800;2023-06-26T02:00:26;7.50;;;6.40;;
6642;SDS011;3357;48.050;7.800;2023-06-26T02:02:52;6.07;;;4.90;;
6642;SDS011;3357;48.050;7.800;2023-06-26T02:05:17;7.50;;;5.17;;
6642;SDS011;3357;48.050;7.800;2023-06-26T02:07:42;6.97;;;5.23;;
6642;SDS011;3357;48.050;7.800;2023-06-26T02:10:08;7.70;;;5.83;;
6642;SDS011;3357;48.050;7.800;2023-06-26T02:12:34;5.03;;;4.43;;
6642;SDS011;3357;48.050;7.800;2023-06-26T02:15:00;6.30;;;4.80;;
6642;SDS011;3357;48.050;7.800;2023-06-26T02:17:26;7.80;;;5.07;;
6642;SDS011;3357;48.050;7.800;2023-06-26T02:19:51;7.57;;;5.10;;
6642;SDS011;3357;48.050;7.800;2023-06-26T02:22:16;7.70;;;5.60;;
6642;SDS011;3357;48.050;7.800;2023-06-26T02:24:43;8.00;;;5.50;;
6642;SDS011;3357;48.050;7.800;2023-06-26T02:27:08;8.77;;;6.07;;
6642;SDS011;3357;48.050;7.800;2023-06-26T02:29:34;9.33;;;5.83;;
6642;SDS011;3357;48.050;7.800;2023-06-26T02:31:59;8.17;;;5.10;;
6642;SDS011;3357;48.050;7.800;2023-06-26T02:34:24;8.93;;;6.87;;
6642;SDS011;3357;48.050;7.800;2023-06-26T02:36:50;7.33;;;5.57;;
6642;SDS011;3357;48.050;7.800;2023-06-26T02:39:15;7.53;;;5.77;;
6642;SDS011;3357;48.050;7.800;2023-06-26T02:41:41;6.90;;;5.40;;
6642;SDS011;3357;48.050;7.800;2023-06-26T02:44:06;6.20;;;4.97;;
6642;SDS011;3357;48.050;7.800;2023-06-26T02:46:32;6.60;;;5.17;;
6642;SDS011;3357;48.050;7.800;2023-06-26T02:48:58;7.23;;;5.37;;
6642;SDS011;3357;48.050;7.800;2023-06-26T02:51:23;8.10;;;5.90;;
6642;SDS011;3357;48.050;7.800;2023-06-26T02:53:48;7.10;;;5.40;;
6642;SDS011;3357;48.050;7.800;2023-06-26T02:56:14;7.77;;;5.33;;
6642;SDS011;3357;48.050;7.800;2023-06-26T02:58:39;7.13;;;5.23;;
6642;SDS011;3357;48.050;7.800;2023-06-26T03:01:04;7.77;;;5.57;;
6642;SDS011;3357;48.050;7.800;2023-06-26T03:03:29;7.20;;;5.33;;
6642;SDS011;3357;48.050;7.800;2023-06-26T03:05:54;7.40;;;5.70;;
6642;SDS011;3357;48.050;7.800;2023-06-26T03:08:20;8.10;;;5.13;;
6642;SDS011;3357;48.050;7.800;2023-06-26T03:10:45;6.20;;;5.30;;
6642;SDS011;3357;48.050;7.800;2023-06-26T03:13:10;6.70;;;5.73;;
6642;SDS011;3357;48.050;7.800;2023-06-26T03:15:35;10.10;;;5.13;;
6642;SDS011;3357;48.050;7.800;2023-06-26T03:18:01;7.20;;;5.67;;
6642;SDS011;3357;48.050;7.800;2023-06-26T03:20:26;6.20;;;4.93;;
6642;SDS011;3357;48.050;7.800;2023-06-26T03:22:51;6.93;;;5.20;;
6642;SDS011;3357;48.050;7.800;2023-06-26T03:25:17;6.63;;;5.47;;
6642;SDS011;3357;48.050;7.800;2023-06-26T03:27:42;8.30;;;5.40;;
6642;SDS011;3357;48.050;7.800;2023-06-26T03:30:07;9.80;;;5.43;;
6642;SDS011;3357;48.050;7.800;2023-06-26T03:32:33;8.67;;;5.53;;
6642;SDS011;3357;48.050;7.800;2023-06-26T03:34:58;6.80;;;4.83;;
6642;SDS011;3357;48.050;7.800;2023-06-26T03:37:24;7.87;;;5.53;;
6642;SDS011;3357;48.050;7.800;2023-06-26T03:39:49;6.87;;;5.50;;
6642;SDS011;3357;48.050;7.800;2023-06-26T03:42:14;7.53;;;4.90;;
6642;SDS011;3357;48.050;7.800;2023-06-26T03:44:40;8.70;;;6.27;;
6642;SDS011;3357;48.050;7.800;2023-06-26T03:47:05;8.90;;;5.70;;
6642;SDS011;3357;48.050;7.800;2023-06-26T03:49:30;8.57;;;5.80;;
6642;SDS011;3357;48.050;7.800;2023-06-26T03:51:55;5.90;;;5.27;;
6642;SDS011;3357;48.050;7.800;2023-06-26T03:54:21;7.20;;;5.77;;
6642;SDS011;3357;48.050;7.800;2023-06-26T03:56:46;8.60;;;6.10;;
6642;SDS011;3357;48.050;7.800;2023-06-26T03:59:11;8.63;;;6.07;;
6642;SDS011;3357;48.050;7.800;2023-06-26T04:01:37;8.30;;;5.77;;
6642;SDS011;3357;48.050;7.800;2023-06-26T04:04:03;7.33;;;5.63;;
6642;SDS011;3357;48.050;7.800;2023-06-26T04:06:28;7.23;;;5.43;;
6642;SDS011;3357;48.050;7.800;2023-06-26T04:08:56;11.77;;;5.17;;
6642;SDS011;3357;48.050;7.800;2023-06-26T04:11:21;7.90;;;5.73;;
6642;SDS011;3357;48.050;7.800;2023-06-26T04:13:46;7.03;;;5.87;;
6642;SDS011;3357;48.050;7.800;2023-06-26T04:16:12;8.97;;;5.57;;
6642;SDS011;3357;48.050;7.800;2023-06-26T04:18:37;6.80;;;5.37;;
6642;SDS011;3357;48.050;7.800;2023-06-26T04:21:09;9.60;;;5.73;;
6642;SDS011;3357;48.050;7.800;2023-06-26T04:23:36;6.50;;;5.60;;
6642;SDS011;3357;48.050;7.800;2023-06-26T04:26:02;9.83;;;5.70;;
6642;SDS011;3357;48.050;7.800;2023-06-26T04:28:29;11.47;;;5.93;;
6642;SDS011;3357;48.050;7.800;2023-06-26T04:30:55;9.03;;;6.40;;
6642;SDS011;3357;48.050;7.800;2023-06-26T04:33:20;7.23;;;5.83;;
6642;SDS011;3357;48.050;7.800;2023-06-26T04:35:45;6.13;;;4.93;;
6642;SDS011;3357;48.050;7.800;2023-06-26T04:38:14;8.53;;;5.60;;
6642;SDS011;3357;48.050;7.800;2023-06-26T04:40:40;9.63;;;6.17;;
6642;SDS011;3357;48.050;7.800;2023-06-26T04:43:05;7.03;;;5.63;;
6642;SDS011;3357;48.050;7.800;2023-06-26T04:45:30;8.37;;;5.70;;
6642;SDS011;3357;48.050;7.800;2023-06-26T04:47:55;7.37;;;5.57;;
6642;SDS011;3357;48.050;7.800;2023-06-26T04:50:21;8.53;;;4.97;;
6642;SDS011;3357;48.050;7.800;2023-06-26T04:52:47;7.57;;;5.07;;
6642;SDS011;3357;48.050;7.800;2023-06-26T04:55:12;9.30;;;5.27;;
6642;SDS011;3357;48.050;7.800;2023-06-26T04:57:37;7.57;;;5.30;;
6642;SDS011;3357;48.050;7.800;2023-06-26T05:00:03;8.20;;;5.23;;
6642;SDS011;3357;48.050;7.800;2023-06-26T05:02:34;10.90;;;5.40;;
6642;SDS011;3357;48.050;7.800;2023-06-26T05:04:59;11.10;;;5.73;;
6642;SDS011;3357;48.050;7.800;2023-06-26T05:07:25;6.27;;;5.23;;
6642;SDS011;3357;48.050;7.800;2023-06-26T05:09:50;8.67;;;5.70;;
6642;SDS011;3357;48.050;7.800;2023-06-26T05:12:15;7.50;;;5.53;;
6642;SDS011;3357;48.050;7.800;2023-06-26T05:14:40;10.77;;;5.13;;
6642;SDS011;3357;48.050;7.800;2023-06-26T05:17:06;7.60;;;4.93;;
6642;SDS011;3357;48.050;7.800;2023-06-26T05:19:31;8.13;;;5.80;;
6642;SDS011;3357;48.050;7.800;2023-06-26T05:21:56;5.97;;;5.30;;
6642;SDS011;3357;48.050;7.800;2023-06-26T05:24:22;7.77;;;5.97;;
6642;SDS011;3357;48.050;7.800;2023-06-26T05:26:48;8.57;;;5.40;;
6642;SDS011;3357;48.050;7.800;2023-06-26T05:29:13;8.47;;;4.90;;
6642;SDS011;3357;48.050;7.800;2023-06-26T05:31:40;5.73;;;5.10;;
6642;SDS011;3357;48.050;7.800;2023-06-26T05:34:06;9.80;;;5.60;;
6642;SDS011;3357;48.050;7.800;2023-06-26T05:36:32;5.93;;;5.23;;
6642;SDS011;3357;48.050;7.800;2023-06-26T05:38:59;8.57;;;5.10;;
6642;SDS011;3357;48.050;7.800;2023-06-26T05:41:24;6.83;;;5.53;;
6642;SDS011;3357;48.050;7.800;2023-06-26T05:43:50;6.10;;;4.40;;
6642;SDS011;3357;48.050;7.800;2023-06-26T05:46:15;9.63;;;5.90;;
6642;SDS011;3357;48.050;7.800;2023-06-26T05:48:40;7.20;;;5.63;;
6642;SDS011;3357;48.050;7.800;2023-06-26T05:51:06;11.27;;;5.30;;
6642;SDS011;3357;48.050;7.800;2023-06-26T05:53:31;6.53;;;4.80;;
6642;SDS011;3357;48.050;7.800;2023-06-26T05:55:57;12.83;;;5.43;;
6642;SDS011;3357;48.050;7.800;2023-06-26T05:58:23;10.70;;;5.70;;
6642;SDS011;3357;48.050;7.800;2023-06-26T06:00:49;13.10;;;5.33;;
6642;SDS011;3357;48.050;7.800;2023-06-26T06:03:15;8.63;;;5.70;;
6642;SDS011;3357;48.050;7.800;2023-06-26T06:05:40;8.30;;;5.20;;
6642;SDS011;3357;48.050;7.800;2023-06-26T06:08:05;5.40;;;4.90;;
6642;SDS011;3357;48.050;7.800;2023-06-26T06:10:30;9.80;;;5.50;;
6642;SDS011;3357;48.050;7.800;2023-06-26T06:12:55;7.53;;;5.10;;
6642;SDS011;3357;48.050;7.800;2023-06-26T06:15:21;13.10;;;5.73;;
6642;SDS011;3357;48.050;7.800;2023-06-26T06:17:46;5.63;;;4.83;;
6642;SDS011;3357;48.050;7.800;2023-06-26T06:20:11;6.97;;;5.53;;
6642;SDS011;3357;48.050;7.800;2023-06-26T06:22:36;7.73;;;4.87;;
6642;SDS011;3357;48.050;7.800;2023-06-26T06:25:02;6.20;;;4.47;;
6642;SDS011;3357;48.050;7.800;2023-06-26T06:27:27;4.50;;;4.10;;
6642;SDS011;3357;48.050;7.800;2023-06-26T06:29:53;6.27;;;4.60;;
6642;SDS011;3357;48.050;7.800;2023-06-26T06:32:18;5.17;;;4.33;;
6642;SDS011;3357;48.050;7.800;2023-06-26T06:34:43;7.80;;;5.10;;
6642;SDS011;3357;48.050;7.800;2023-06-26T06:37:09;5.97;;;5.10;;
6642;SDS011;3357;48.050;7.800;2023-06-26T06:39:34;5.30;;;4.80;;
6642;SDS011;3357;48.050;7.800;2023-06-26T06:41:59;5.07;;;4.30;;
6642;SDS011;3357;48.050;7.800;2023-06-26T06:44:24;4.70;;;4.20;;
6642;SDS011;3357;48.050;7.800;2023-06-26T06:46:49;4.83;;;4.43;;
6642;SDS011;3357;48.050;7.800;2023-06-26T06:49:15;4.77;;;4.23;;
6642;SDS011;3357;48.050;7.800;2023-06-26T06:51:40;7.13;;;5.20;;
6642;SDS011;3357;48.050;7.800;2023-06-26T06:54:05;4.97;;;4.33;;
6642;SDS011;3357;48.050;7.800;2023-06-26T06:56:30;6.60;;;4.93;;
6642;SDS011;3357;48.050;7.800;2023-06-26T06:58:56;4.70;;;4.20;;
6642;SDS011;3357;48.050;7.800;2023-06-26T07:01:21;7.70;;;4.60;;
6642;SDS011;3357;48.050;7.800;2023-06-26T07:03:46;7.17;;;5.17;;
6642;SDS011;3357;48.050;7.800;2023-06-26T07:06:11;8.00;;;4.50;;
6642;SDS011;3357;48.050;7.800;2023-06-26T07:08:37;4.90;;;4.50;;
6642;SDS011;3357;48.050;7.800;2023-06-26T07:11:02;5.53;;;4.70;;
6642;SDS011;3357;48.050;7.800;2023-06-26T07:13:28;5.20;;;4.37;;
6642;SDS011;3357;48.050;7.800;2023-06-26T07:15:53;6.47;;;4.70;;
6642;SDS011;3357;48.050;7.800;2023-06-26T07:18:18;5.50;;;3.77;;
6642;SDS011;3357;48.050;7.800;2023-06-26T07:20:43;9.07;;;5.23;;
6642;SDS011;3357;48.050;7.800;2023-06-26T07:23:09;7.50;;;4.80;;
6642;SDS011;3357;48.050;7.800;2023-06-26T07:25:34;5.33;;;4.60;;
6642;SDS011;3357;48.050;7.800;2023-06-26T07:28:00;5.40;;;4.90;;
6642;SDS011;3357;48.050;7.800;2023-06-26T07:30:25;6.10;;;4.87;;
6642;SDS011;3357;48.050;7.800;2023-06-26T07:32:50;4.93;;;4.40;;
6642;SDS011;3357;48.050;7.800;2023-06-26T07:35:16;12.90;;;4.53;;
6642;SDS011;3357;48.050;7.800;2023-06-26T07:37:41;5.17;;;4.67;;
6642;SDS011;3357;48.050;7.800;2023-06-26T07:40:07;5.40;;;4.47;;
6642;SDS011;3357;48.050;7.800;2023-06-26T07:42:33;5.67;;;4.73;;
6642;SDS011;3357;48.050;7.800;2023-06-26T07:44:58;5.37;;;4.80;;
6642;SDS011;3357;48.050;7.800;2023-06-26T07:47:24;8.10;;;4.80;;
6642;SDS011;3357;48.050;7.800;2023-06-26T07:49:49;10.23;;;5.37;;
6642;SDS011;3357;48.050;7.800;2023-06-26T07:52:14;5.67;;;4.87;;
6642;SDS011;3357;48.050;7.800;2023-06-26T07:54:40;7.20;;;5.00;;
6642;SDS011;3357;48.050;7.800;2023-06-26T07:57:05;8.97;;;5.10;;
6642;SDS011;3357;48.050;7.800;2023-06-26T07:59:34;8.30;;;4.90;;
6642;SDS011;3357;48.050;7.800;2023-06-26T08:01:59;5.10;;;4.43;;
6642;SDS011;3357;48.050;7.800;2023-06-26T08:04:26;7.03;;;4.00;;
6642;SDS011;3357;48.050;7.800;2023-06-26T08:06:52;5.43;;;4.93;;
6642;SDS011;3357;48.050;7.800;2023-06-26T08:09:20;6.20;;;4.33;;
6642;SDS011;3357;48.050;7.800;2023-06-26T08:11:46;6.10;;;4.83;;
6642;SDS011;3357;48.050;7.800;2023-06-26T08:14:11;5.00;;;4.53;;
6642;SDS011;3357;48.050;7.800;2023-06-26T08:16:38;6.60;;;5.20;;
6642;SDS011;3357;48.050;7.800;2023-06-26T08:19:03;7.27;;;5.37;;
6642;SDS011;3357;48.050;7.800;2023-06-26T08:21:29;7.57;;;5.70;;
6642;SDS011;3357;48.050;7.800;2023-06-26T08:23:54;12.33;;;5.27;;
6642;SDS011;3357;48.050;7.800;2023-06-26T08:26:19;6.07;;;5.47;;
6642;SDS011;3357;48.050;7.800;2023-06-26T08:28:44;6.70;;;5.47;;
6642;SDS011;3357;48.050;7.800;2023-06-26T08:31:10;6.13;;;5.53;;
6642;SDS011;3357;48.050;7.800;2023-06-26T08:33:35;5.73;;;5.23;;
6642;SDS011;3357;48.050;7.800;2023-06-26T08:36:00;9.50;;;5.90;;
6642;SDS011;3357;48.050;7.800;2023-06-26T08:38:25;6.60;;;5.00;;
6642;SDS011;3357;48.050;7.800;2023-06-26T08:40:51;7.33;;;5.90;;
6642;SDS011;3357;48.050;7.800;2023-06-26T08:43:16;7.60;;;5.83;;
6642;SDS011;3357;48.050;7.800;2023-06-26T08:45:41;7.73;;;5.60;;
6642;SDS011;3357;48.050;7.800;2023-06-26T08:48:07;7.30;;;5.40;;
6642;SDS011;3357;48.050;7.800;2023-06-26T08:50:33;6.67;;;5.97;;
6642;SDS011;3357;48.050;7.800;2023-06-26T08:55:51;6.27;;;5.23;;
6642;SDS011;3357;48.050;7.800;2023-06-26T08:58:17;7.10;;;5.70;;
6642;SDS011;3357;48.050;7.800;2023-06-26T09:00:43;11.23;;;5.67;;
6642;SDS011;3357;48.050;7.800;2023-06-26T09:03:08;8.00;;;5.30;;
6642;SDS011;3357;48.050;7.800;2023-06-26T09:05:34;8.93;;;5.70;;
6642;SDS011;3357;48.050;7.800;2023-06-26T09:08:00;8.03;;;6.20;;
6642;SDS011;3357;48.050;7.800;2023-06-26T09:10:25;12.47;;;6.07;;
6642;SDS011;3357;48.050;7.800;2023-06-26T09:12:50;8.43;;;5.33;;
6642;SDS011;3357;48.050;7.800;2023-06-26T09:15:20;11.00;;;5.63;;
6642;SDS011;3357;48.050;7.800;2023-06-26T09:17:45;6.90;;;5.67;;
6642;SDS011;3357;48.050;7.800;2023-06-26T09:20:13;6.00;;;5.43;;
6642;SDS011;3357;48.050;7.800;2023-06-26T09:22:41;9.50;;;5.90;;
6642;SDS011;3357;48.050;7.800;2023-06-26T09:25:08;8.67;;;5.43;;
6642;SDS011;3357;48.050;7.800;2023-06-26T09:27:34;5.77;;;5.17;;
6642;SDS011;3357;48.050;7.800;2023-06-26T09:29:59;7.90;;;5.40;;
6642;SDS011;3357;48.050;7.800;2023-06-26T09:32:27;6.73;;;5.93;;
6642;SDS011;3357;48.050;7.800;2023-06-26T09:34:53;6.77;;;5.40;;
6642;SDS011;3357;48.050;7.800;2023-06-26T09:37:20;9.00;;;5.60;;
6642;SDS011;3357;48.050;7.800;2023-06-26T09:39:46;8.63;;;5.80;;
6642;SDS011;3357;48.050;7.800;2023-06-26T09:42:13;6.30;;;5.70;;
6642;SDS011;3357;48.050;7.800;2023-06-26T09:44:43;6.70;;;5.60;;
6642;SDS011;3357;48.050;7.800;2023-06-26T09:47:09;5.50;;;5.00;;
6642;SDS011;3357;48.050;7.800;2023-06-26T09:49:34;11.20;;;4.90;;
6642;SDS011;3357;48.050;7.800;2023-06-26T09:52:00;6.83;;;5.50;;
6642;SDS011;3357;48.050;7.800;2023-06-26T09:54:25;7.00;;;5.97;;
6642;SDS011;3357;48.050;7.800;2023-06-26T09:56:55;6.10;;;5.50;;
6642;SDS011;3357;48.050;7.800;2023-06-26T09:59:21;7.53;;;5.80;;
6642;SDS011;3357;48.050;7.800;2023-06-26T10:01:46;12.50;;;6.10;;
6642;SDS011;3357;48.050;7.800;2023-06-26T10:04:11;5.73;;;5.13;;
6642;SDS011;3357;48.050;7.800;2023-06-26T10:06:39;6.67;;;6.07;;
6642;SDS011;3357;48.050;7.800;2023-06-26T10:09:06;8.37;;;5.90;;
6642;SDS011;3357;48.050;7.800;2023-06-26T10:11:35;8.20;;;5.93;;
6642;SDS011;3357;48.050;7.800;2023-06-26T10:14:03;7.20;;;6.43;;
6642;SDS011;3357;48.050;7.800;2023-06-26T10:16:29;7.60;;;5.20;;
6642;SDS011;3357;48.050;7.800;2023-06-26T10:18:58;9.53;;;5.90;;
6642;SDS011;3357;48.050;7.800;2023-06-26T10:21:26;6.27;;;5.70;;
6642;SDS011;3357;48.050;7.800;2023-06-26T10:23:52;5.83;;;5.33;;
6642;SDS011;3357;48.050;7.800;2023-06-26T10:26:19;6.13;;;5.40;;
6642;SDS011;3357;48.050;7.800;2023-06-26T10:28:46;12.50;;;5.67;;
6642;SDS011;3357;48.050;7.800;2023-06-26T10:31:14;5.80;;;5.23;;
6642;SDS011;3357;48.050;7.800;2023-06-26T10:33:40;5.57;;;5.07;;
6642;SDS011;3357;48.050;7.800;2023-06-26T10:36:13;7.47;;;5.10;;
6642;SDS011;3357;48.050;7.800;2023-06-26T10:38:49;6.80;;;5.00;;
6642;SDS011;3357;48.050;7.800;2023-06-26T10:41:22;5.33;;;4.93;;
6642;SDS011;3357;48.050;7.800;2023-06-26T10:44:30;6.50;;;5.17;;
6642;SDS011;3357;48.050;7.800;2023-06-26T10:49:19;12.07;;;4.40;;
6642;SDS011;3357;48.050;7.800;2023-06-26T10:51:51;5.03;;;4.63;;
6642;SDS011;3357;48.050;7.800;2023-06-26T10:54:18;5.70;;;5.17;;
6642;SDS011;3357;48.050;7.800;2023-06-26T10:56:50;6.20;;;5.60;;
6642;SDS011;3357;48.050;7.800;2023-06-26T10:59:19;5.67;;;5.17;;
6642;SDS011;3357;48.050;7.800;2023-06-26T11:01:46;7.93;;;4.70;;
6642;SDS011;3357;48.050;7.800;2023-06-26T11:04:19;4.80;;;4.40;;
6642;SDS011;3357;48.050;7.800;2023-06-26T11:09:58;6.03;;;5.47;;
6642;SDS011;3357;48.050;7.800;2023-06-26T11:12:36;6.27;;;5.70;;
6642;SDS011;3357;48.050;7.800;2023-06-26T11:15:13;5.80;;;5.10;;
6642;SDS011;3357;48.050;7.800;2023-06-26T11:17:40;5.50;;;5.10;;
6642;SDS011;3357;48.050;7.800;2023-06-26T11:20:06;5.30;;;4.80;;
6642;SDS011;3357;48.050;7.800;2023-06-26T11:22:34;5.83;;;4.40;;
6642;SDS011;3357;48.050;7.800;2023-06-26T11:25:00;5.13;;;4.67;;
6642;SDS011;3357;48.050;7.800;2023-06-26T11:27:30;6.33;;;4.77;;
6642;SDS011;3357;48.050;7.800;2023-06-26T11:30:06;5.93;;;5.33;;
6642;SDS011;3357;48.050;7.800;2023-06-26T11:32:32;6.40;;;5.60;;
6642;SDS011;3357;48.050;7.800;2023-06-26T11:34:58;5.40;;;4.90;;
6642;SDS011;3357;48.050;7.800;2023-06-26T11:37:24;6.23;;;4.43;;
6642;SDS011;3357;48.050;7.800;2023-06-26T11:39:50;6.83;;;4.40;;
6642;SDS011;3357;48.050;7.800;2023-06-26T11:42:16;4.70;;;4.30;;
6642;SDS011;3357;48.050;7.800;2023-06-26T11:44:41;4.97;;;4.57;;
6642;SDS011;3357;48.050;7.800;2023-06-26T11:47:14;4.70;;;4.40;;
6642;SDS011;3357;48.050;7.800;2023-06-26T11:49:43;4.67;;;4.27;;
6642;SDS011;3357;48.050;7.800;2023-06-26T11:52:09;7.47;;;5.70;;
6642;SDS011;3357;48.050;7.800;2023-06-26T11:54:34;7.20;;;4.30;;
6642;SDS011;3357;48.050;7.800;2023-06-26T11:57:00;5.97;;;4.87;;
6642;SDS011;3357;48.050;7.800;2023-06-26T11:59:36;5.20;;;4.70;;
6642;SDS011;3357;48.050;7.800;2023-06-26T12:02:05;5.90;;;4.30;;
6642;SDS011;3357;48.050;7.800;2023-06-26T12:04:31;4.77;;;4.03;;
6642;SDS011;3357;48.050;7.800;2023-06-26T12:06:57;5.67;;;4.90;;
6642;SDS011;3357;48.050;7.800;2023-06-26T12:09:23;7.93;;;4.87;;
6642;SDS011;3357;48.050;7.800;2023-06-26T12:11:52;4.87;;;4.10;;
6642;SDS011;3357;48.050;7.800;2023-06-26T12:14:19;5.20;;;4.40;;
6642;SDS011;3357;48.050;7.800;2023-06-26T12:16:45;5.07;;;4.67;;
6642;SDS011;3357;48.050;7.800;2023-06-26T12:19:10;7.40;;;4.93;;
6642;SDS011;3357;48.050;7.800;2023-06-26T12:24:01;8.13;;;5.00;;
6642;SDS011;3357;48.050;7.800;2023-06-26T12:26:27;9.60;;;4.40;;
6642;SDS011;3357;48.050;7.800;2023-06-26T12:28:54;3.93;;;3.63;;
6642;SDS011;3357;48.050;7.800;2023-06-26T12:31:26;5.07;;;4.50;;
6642;SDS011;3357;48.050;7.800;2023-06-26T12:33:51;4.57;;;4.27;;
6642;SDS011;3357;48.050;7.800;2023-06-26T12:36:17;5.00;;;4.57;;
6642;SDS011;3357;48.050;7.800;2023-06-26T12:38:45;7.23;;;4.20;;
6642;SDS011;3357;48.050;7.800;2023-06-26T12:41:14;4.93;;;3.80;;
6642;SDS011;3357;48.050;7.800;2023-06-26T12:43:40;5.13;;;3.50;;
6642;SDS011;3357;48.050;7.800;2023-06-26T12:46:05;3.93;;;3.67;;
6642;SDS011;3357;48.050;7.800;2023-06-26T12:48:41;6.10;;;3.80;;
6642;SDS011;3357;48.050;7.800;2023-06-26T12:51:16;4.10;;;3.70;;
6642;SDS011;3357;48.050;7.800;2023-06-26T12:53:42;4.13;;;3.87;;
6642;SDS011;3357;48.050;7.800;2023-06-26T12:56:08;5.50;;;3.07;;
6642;SDS011;3357;48.050;7.800;2023-06-26T12:58:34;3.50;;;3.20;;
6642;SDS011;3357;48.050;7.800;2023-06-26T13:01:02;6.17;;;3.17;;
6642;SDS011;3357;48.050;7.800;2023-06-26T13:03:28;3.33;;;3.03;;
6642;SDS011;3357;48.050;7.800;2023-06-26T13:05:55;3.30;;;3.10;;
6642;SDS011;3357;48.050;7.800;2023-06-26T13:08:20;4.57;;;4.00;;
6642;SDS011;3357;48.050;7.800;2023-06-26T13:10:45;6.70;;;3.77;;
6642;SDS011;3357;48.050;7.800;2023-06-26T13:13:11;4.10;;;3.80;;
6642;SDS011;3357;48.050;7.800;2023-06-26T13:15:36;3.27;;;2.90;;
6642;SDS011;3357;48.050;7.800;2023-06-26T13:18:02;3.23;;;3.03;;
6642;SDS011;3357;48.050;7.800;2023-06-26T13:20:27;3.60;;;3.00;;
6642;SDS011;3357;48.050;7.800;2023-06-26T13:22:53;9.53;;;3.40;;
6642;SDS011;3357;48.050;7.800;2023-06-26T13:25:19;3.33;;;3.13;;
6642;SDS011;3357;48.050;7.800;2023-06-26T13:27:44;5.43;;;3.50;;
6642;SDS011;3357;48.050;7.800;2023-06-26T13:30:10;3.20;;;3.00;;
6642;SDS011;3357;48.050;7.800;2023-06-26T13:32:35;3.27;;;2.97;;
6642;SDS011;3357;48.050;7.800;2023-06-26T13:35:00;3.80;;;3.03;;
6642;SDS011;3357;48.050;7.800;2023-06-26T13:37:26;2.83;;;2.63;;
6642;SDS011;3357;48.050;7.800;2023-06-26T13:39:51;3.30;;;2.30;;
6642;SDS011;3357;48.050;7.800;2023-06-26T13:42:17;3.20;;;3.00;;
6642;SDS011;3357;48.050;7.800;2023-06-26T13:44:42;6.43;;;3.73;;
6642;SDS011;3357;48.050;7.800;2023-06-26T13:47:08;4.07;;;3.40;;
6642;SDS011;3357;48.050;7.800;2023-06-26T13:49:34;3.53;;;3.23;;
6642;SDS011;3357;48.050;7.800;2023-06-26T13:51:59;3.13;;;2.90;;
6642;SDS011;3357;48.050;7.800;2023-06-26T13:54:25;2.80;;;2.60;;
6642;SDS011;3357;48.050;7.800;2023-06-26T13:56:50;2.97;;;2.77;;
6642;SDS011;3357;48.050;7.800;2023-06-26T13:59:15;3.27;;;3.00;;
6642;SDS011;3357;48.050;7.800;2023-06-26T14:01:40;6.73;;;2.90;;
6642;SDS011;3357;48.050;7.800;2023-06-26T14:04:07;6.73;;;2.60;;
6642;SDS011;3357;48.050;7.800;2023-06-26T14:06:33;2.27;;;2.17;;
6642;SDS011;3357;48.050;7.800;2023-06-26T14:08:59;4.27;;;2.70;;
6642;SDS011;3357;48.050;7.800;2023-06-26T14:11:25;2.50;;;2.30;;
6642;SDS011;3357;48.050;7.800;2023-06-26T14:13:50;2.50;;;2.30;;
6642;SDS011;3357;48.050;7.800;2023-06-26T14:16:15;6.50;;;2.60;;
6642;SDS011;3357;48.050;7.800;2023-06-26T14:18:43;3.13;;;2.50;;
6642;SDS011;3357;48.050;7.800;2023-06-26T14:21:09;3.00;;;2.60;;
6642;SDS011;3357;48.050;7.800;2023-06-26T14:23:34;2.40;;;2.20;;
6642;SDS011;3357;48.050;7.800;2023-06-26T14:25:59;3.10;;;2.50;;
6642;SDS011;3357;48.050;7.800;2023-06-26T14:28:25;2.73;;;2.43;;
6642;SDS011;3357;48.050;7.800;2023-06-26T14:30:50;3.57;;;2.70;;
6642;SDS011;3357;48.050;7.800;2023-06-26T14:33:16;2.50;;;2.40;;
6642;SDS011;3357;48.050;7.800;2023-06-26T14:35:41;6.00;;;2.50;;
6642;SDS011;3357;48.050;7.800;2023-06-26T14:38:06;3.90;;;3.40;;
6642;SDS011;3357;48.050;7.800;2023-06-26T14:40:31;4.50;;;3.07;;
6642;SDS011;3357;48.050;7.800;2023-06-26T14:42:57;2.70;;;2.50;;
6642;SDS011;3357;48.050;7.800;2023-06-26T14:45:22;4.80;;;3.17;;
6642;SDS011;3357;48.050;7.800;2023-06-26T14:47:47;2.93;;;2.73;;
6642;SDS011;3357;48.050;7.800;2023-06-26T14:50:12;3.50;;;3.03;;
6642;SDS011;3357;48.050;7.800;2023-06-26T14:52:38;3.57;;;2.70;;
6642;SDS011;3357;48.050;7.800;2023-06-26T14:55:03;3.03;;;2.80;;
6642;SDS011;3357;48.050;7.800;2023-06-26T14:57:29;4.33;;;3.27;;
6642;SDS011;3357;48.050;7.800;2023-06-26T14:59:55;5.00;;;2.93;;
6642;SDS011;3357;48.050;7.800;2023-06-26T15:02:20;4.53;;;4.23;;
6642;SDS011;3357;48.050;7.800;2023-06-26T15:04:46;4.03;;;3.07;;
6642;SDS011;3357;48.050;7.800;2023-06-26T15:07:11;3.17;;;2.80;;
6642;SDS011;3357;48.050;7.800;2023-06-26T15:09:36;3.80;;;3.47;;
6642;SDS011;3357;48.050;7.800;2023-06-26T15:12:01;6.20;;;3.17;;
6642;SDS011;3357;48.050;7.800;2023-06-26T15:14:27;3.00;;;2.80;;
6642;SDS011;3357;48.050;7.800;2023-06-26T15:16:53;3.90;;;3.60;;
6642;SDS011;3357;48.050;7.800;2023-06-26T15:19:18;3.40;;;3.20;;
6642;SDS011;3357;48.050;7.800;2023-06-26T15:21:43;3.80;;;3.50;;
6642;SDS011;3357;48.050;7.800;2023-06-26T15:24:08;3.83;;;3.53;;
6642;SDS011;3357;48.050;7.800;2023-06-26T15:26:34;4.23;;;3.83;;
6642;SDS011;3357;48.050;7.800;2023-06-26T15:28:59;7.37;;;4.20;;
6642;SDS011;3357;48.050;7.800;2023-06-26T15:31:24;5.10;;;4.60;;